sensor_id;sensor_type;location;lat;lon;timestamp;P1;durP1;ratioP1;P2;durP2;ratioP2
35562;SDS011;21665;40.108;18.302;2022-10-16T00:01:42;27.05;;;18.35;;
35562;SDS011;21665;40.108;18.302;2022-10-16T00:04:12;31.88;;;19.73;;
35562;SDS011;21665;40.108;18.302;2022-10-16T00:06:39;34.38;;;20.40;;
35562;SDS011;21665;40.108;18.302;2022-10-16T00:09:06;36.95;;;21.15;;
35562;SDS011;21665;40.108;18.302;2022-10-16T00:11:33;34.10;;;20.33;;
35562;SDS011;21665;40.108;18.302;2022-10-16T00:14:04;35.97;;;20.50;;
35562;SDS011;21665;40.108;18.302;2022-10-16T00:16:34;36.33;;;20.00;;
35562;SDS011;21665;40.108;18.302;2022-10-16T00:19:01;36.20;;;20.55;;
35562;SDS011;21665;40.108;18.302;2022-10-16T00:21:29;34.72;;;19.55;;
35562;SDS011;21665;40.108;18.302;2022-10-16T00:23:58;35.15;;;19.77;;
35562;SDS011;21665;40.108;18.302;2022-10-16T00:26:28;34.35;;;20.20;;
35562;SDS011;21665;40.108;18.302;2022-10-16T00:28:56;34.85;;;22.20;;
35562;SDS011;21665;40.108;18.302;2022-10-16T00:31:23;38.70;;;22.13;;
35562;SDS011;21665;40.108;18.302;2022-10-16T00:33:53;41.97;;;22.98;;
35562;SDS011;21665;40.108;18.302;2022-10-16T00:36:21;43.47;;;23.52;;
35562;SDS011;21665;40.108;18.302;2022-10-16T00:38:56;41.25;;;23.10;;
35562;SDS011;21665;40.108;18.302;2022-10-16T00:41:25;37.85;;;22.55;;
35562;SDS011;21665;40.108;18.302;2022-10-16T00:43:56;43.30;;;25.83;;
35562;SDS011;21665;40.108;18.302;2022-10-16T00:49:15;47.53;;;24.85;;
35562;SDS011;21665;40.108;18.302;2022-10-16T00:51:49;50.97;;;25.27;;
35562;SDS011;21665;40.108;18.302;2022-10-16T00:54:19;48.85;;;24.75;;
35562;SDS011;21665;40.108;18.302;2022-10-16T00:56:56;47.15;;;26.58;;
35562;SDS011;21665;40.108;18.302;2022-10-16T00:59:31;51.92;;;26.52;;
35562;SDS011;21665;40.108;18.302;2022-10-16T01:02:02;47.22;;;24.33;;
35562;SDS011;21665;40.108;18.302;2022-10-16T01:04:35;44.40;;;24.48;;
35562;SDS011;21665;40.108;18.302;2022-10-16T01:15:25;54.17;;;27.13;;
35562;SDS011;21665;40.108;18.302;2022-10-16T01:17:58;45.97;;;25.35;;
35562;SDS011;21665;40.108;18.302;2022-10-16T01:20:35;43.65;;;23.42;;
35562;SDS011;21665;40.108;18.302;2022-10-16T01:23:28;49.95;;;25.35;;
35562;SDS011;21665;40.108;18.302;2022-10-16T01:29:11;47.15;;;24.45;;
35562;SDS011;21665;40.108;18.302;2022-10-16T01:31:53;51.10;;;25.42;;
35562;SDS011;21665;40.108;18.302;2022-10-16T01:34:33;57.30;;;26.73;;
35562;SDS011;21665;40.108;18.302;2022-10-16T01:37:08;49.45;;;26.20;;
35562;SDS011;21665;40.108;18.302;2022-10-16T01:39:42;48.45;;;26.73;;
35562;SDS011;21665;40.108;18.302;2022-10-16T01:42:15;50.38;;;26.77;;
35562;SDS011;21665;40.108;18.302;2022-10-16T01:44:49;56.70;;;28.75;;
35562;SDS011;21665;40.108;18.302;2022-10-16T01:47:18;61.88;;;30.65;;
35562;SDS011;21665;40.108;18.302;2022-10-16T01:49:51;58.28;;;29.17;;
35562;SDS011;21665;40.108;18.302;2022-10-16T01:52:21;58.20;;;28.27;;
35562;SDS011;21665;40.108;18.302;2022-10-16T01:54:52;49.42;;;25.95;;
35562;SDS011;21665;40.108;18.302;2022-10-16T01:57:23;60.92;;;30.25;;
35562;SDS011;21665;40.108;18.302;2022-10-16T01:59:53;59.60;;;29.45;;
35562;SDS011;21665;40.108;18.302;2022-10-16T02:02:25;62.03;;;30.63;;
35562;SDS011;21665;40.108;18.302;2022-10-16T02:05:08;64.40;;;29.33;;
35562;SDS011;21665;40.108;18.302;2022-10-16T02:07:42;65.80;;;30.58;;
35562;SDS011;21665;40.108;18.302;2022-10-16T02:10:10;46.75;;;25.98;;
35562;SDS011;21665;40.108;18.302;2022-10-16T02:12:38;66.95;;;29.45;;
35562;SDS011;21665;40.108;18.302;2022-10-16T02:15:09;52.00;;;26.92;;
35562;SDS011;21665;40.108;18.302;2022-10-16T02:17:36;55.95;;;28.23;;
35562;SDS011;21665;40.108;18.302;2022-10-16T02:20:03;56.80;;;27.55;;
35562;SDS011;21665;40.108;18.302;2022-10-16T02:25:05;61.40;;;29.17;;
35562;SDS011;21665;40.108;18.302;2022-10-16T02:32:53;62.63;;;29.98;;
35562;SDS011;21665;40.108;18.302;2022-10-16T02:35:21;60.72;;;30.08;;
35562;SDS011;21665;40.108;18.302;2022-10-16T02:37:49;59.72;;;29.55;;
35562;SDS011;21665;40.108;18.302;2022-10-16T02:40:17;64.13;;;29.80;;
35562;SDS011;21665;40.108;18.302;2022-10-16T02:42:49;66.22;;;30.48;;
35562;SDS011;21665;40.108;18.302;2022-10-16T02:45:18;52.50;;;27.02;;
35562;SDS011;21665;40.108;18.302;2022-10-16T02:47:45;57.28;;;26.83;;
35562;SDS011;21665;40.108;18.302;2022-10-16T02:50:12;58.60;;;26.65;;
35562;SDS011;21665;40.108;18.302;2022-10-16T02:52:39;60.55;;;28.13;;
35562;SDS011;21665;40.108;18.302;2022-10-16T02:55:06;55.80;;;26.35;;
35562;SDS011;21665;40.108;18.302;2022-10-16T02:57:33;48.10;;;26.05;;
35562;SDS011;21665;40.108;18.302;2022-10-16T03:00:01;50.03;;;26.55;;
35562;SDS011;21665;40.108;18.302;2022-10-16T03:02:29;58.17;;;30.25;;
35562;SDS011;21665;40.108;18.302;2022-10-16T03:04:55;65.50;;;29.98;;
35562;SDS011;21665;40.108;18.302;2022-10-16T03:07:22;63.67;;;30.33;;
35562;SDS011;21665;40.108;18.302;2022-10-16T03:09:49;69.68;;;31.80;;
35562;SDS011;21665;40.108;18.302;2022-10-16T03:12:15;64.50;;;30.77;;
35562;SDS011;21665;40.108;18.302;2022-10-16T03:14:42;63.05;;;31.38;;
35562;SDS011;21665;40.108;18.302;2022-10-16T03:17:09;62.88;;;30.95;;
35562;SDS011;21665;40.108;18.302;2022-10-16T03:19:36;69.07;;;32.35;;
35562;SDS011;21665;40.108;18.302;2022-10-16T03:22:03;62.47;;;31.25;;
35562;SDS011;21665;40.108;18.302;2022-10-16T03:24:30;66.88;;;32.03;;
35562;SDS011;21665;40.108;18.302;2022-10-16T03:26:57;55.47;;;29.85;;
35562;SDS011;21665;40.108;18.302;2022-10-16T03:29:24;59.00;;;29.38;;
35562;SDS011;21665;40.108;18.302;2022-10-16T03:31:51;61.25;;;31.45;;
35562;SDS011;21665;40.108;18.302;2022-10-16T03:34:18;57.17;;;30.45;;
35562;SDS011;21665;40.108;18.302;2022-10-16T03:36:44;57.72;;;30.52;;
35562;SDS011;21665;40.108;18.302;2022-10-16T03:39:10;65.15;;;30.20;;
35562;SDS011;21665;40.108;18.302;2022-10-16T03:41:37;70.40;;;30.63;;
35562;SDS011;21665;40.108;18.302;2022-10-16T03:44:04;62.38;;;28.45;;
35562;SDS011;21665;40.108;18.302;2022-10-16T03:46:31;64.70;;;31.00;;
35562;SDS011;21665;40.108;18.302;2022-10-16T03:49:01;65.22;;;30.60;;
35562;SDS011;21665;40.108;18.302;2022-10-16T03:51:27;68.07;;;31.52;;
35562;SDS011;21665;40.108;18.302;2022-10-16T03:53:54;65.50;;;29.88;;
35562;SDS011;21665;40.108;18.302;2022-10-16T03:56:21;65.25;;;30.60;;
35562;SDS011;21665;40.108;18.302;2022-10-16T03:58:47;61.58;;;31.02;;
35562;SDS011;21665;40.108;18.302;2022-10-16T04:01:14;61.88;;;30.17;;
35562;SDS011;21665;40.108;18.302;2022-10-16T04:03:41;59.65;;;29.58;;
35562;SDS011;21665;40.108;18.302;2022-10-16T04:06:07;66.93;;;31.33;;
35562;SDS011;21665;40.108;18.302;2022-10-16T04:08:34;61.47;;;29.60;;
35562;SDS011;21665;40.108;18.302;2022-10-16T04:11:02;65.07;;;31.65;;
35562;SDS011;21665;40.108;18.302;2022-10-16T04:13:32;81.20;;;34.70;;
35562;SDS011;21665;40.108;18.302;2022-10-16T04:15:59;70.43;;;33.42;;
35562;SDS011;21665;40.108;18.302;2022-10-16T04:18:25;77.20;;;35.30;;
35562;SDS011;21665;40.108;18.302;2022-10-16T04:20:53;81.63;;;35.13;;
35562;SDS011;21665;40.108;18.302;2022-10-16T04:23:20;70.45;;;32.22;;
35562;SDS011;21665;40.108;18.302;2022-10-16T04:25:48;80.05;;;34.55;;
35562;SDS011;21665;40.108;18.302;2022-10-16T04:28:15;82.15;;;34.30;;
35562;SDS011;21665;40.108;18.302;2022-10-16T04:30:42;72.82;;;32.97;;
35562;SDS011;21665;40.108;18.302;2022-10-16T04:33:09;80.70;;;34.67;;
35562;SDS011;21665;40.108;18.302;2022-10-16T04:35:36;75.95;;;33.85;;
35562;SDS011;21665;40.108;18.302;2022-10-16T04:38:02;77.25;;;34.70;;
35562;SDS011;21665;40.108;18.302;2022-10-16T04:40:29;76.15;;;34.35;;
35562;SDS011;21665;40.108;18.302;2022-10-16T04:43:02;83.57;;;36.53;;
35562;SDS011;21665;40.108;18.302;2022-10-16T04:45:30;89.82;;;37.83;;
35562;SDS011;21665;40.108;18.302;2022-10-16T04:47:58;93.65;;;39.22;;
35562;SDS011;21665;40.108;18.302;2022-10-16T04:50:25;85.63;;;36.20;;
35562;SDS011;21665;40.108;18.302;2022-10-16T04:53:04;85.78;;;37.60;;
35562;SDS011;21665;40.108;18.302;2022-10-16T04:55:32;72.30;;;34.30;;
35562;SDS011;21665;40.108;18.302;2022-10-16T04:57:59;78.32;;;33.33;;
35562;SDS011;21665;40.108;18.302;2022-10-16T05:00:26;92.38;;;35.30;;
35562;SDS011;21665;40.108;18.302;2022-10-16T05:02:53;68.78;;;31.95;;
35562;SDS011;21665;40.108;18.302;2022-10-16T05:05:19;71.90;;;33.15;;
35562;SDS011;21665;40.108;18.302;2022-10-16T05:07:52;96.22;;;39.25;;
35562;SDS011;21665;40.108;18.302;2022-10-16T05:10:19;110.28;;;42.90;;
35562;SDS011;21665;40.108;18.302;2022-10-16T05:12:46;103.57;;;41.13;;
35562;SDS011;21665;40.108;18.302;2022-10-16T05:15:13;127.03;;;43.22;;
35562;SDS011;21665;40.108;18.302;2022-10-16T05:17:40;153.10;;;45.97;;
35562;SDS011;21665;40.108;18.302;2022-10-16T05:20:06;208.23;;;49.55;;
35562;SDS011;21665;40.108;18.302;2022-10-16T05:22:33;188.40;;;50.60;;
35562;SDS011;21665;40.108;18.302;2022-10-16T05:25:00;304.77;;;51.25;;
35562;SDS011;21665;40.108;18.302;2022-10-16T05:27:27;327.40;;;53.88;;
35562;SDS011;21665;40.108;18.302;2022-10-16T05:29:54;377.75;;;56.50;;
35562;SDS011;21665;40.108;18.302;2022-10-16T05:32:20;551.13;;;68.55;;
35562;SDS011;21665;40.108;18.302;2022-10-16T05:34:47;459.23;;;54.40;;
35562;SDS011;21665;40.108;18.302;2022-10-16T05:37:14;431.13;;;54.00;;
35562;SDS011;21665;40.108;18.302;2022-10-16T05:39:40;531.78;;;62.20;;
35562;SDS011;21665;40.108;18.302;2022-10-16T05:42:07;353.00;;;52.78;;
35562;SDS011;21665;40.108;18.302;2022-10-16T05:44:34;202.93;;;45.00;;
35562;SDS011;21665;40.108;18.302;2022-10-16T05:47:00;382.13;;;53.50;;
35562;SDS011;21665;40.108;18.302;2022-10-16T05:49:27;194.75;;;41.38;;
35562;SDS011;21665;40.108;18.302;2022-10-16T05:51:55;247.73;;;43.63;;
35562;SDS011;21665;40.108;18.302;2022-10-16T05:54:22;168.70;;;36.80;;
35562;SDS011;21665;40.108;18.302;2022-10-16T05:56:48;207.63;;;38.85;;
35562;SDS011;21665;40.108;18.302;2022-10-16T05:59:15;119.82;;;34.45;;
35562;SDS011;21665;40.108;18.302;2022-10-16T06:01:42;82.53;;;32.45;;
35562;SDS011;21665;40.108;18.302;2022-10-16T06:04:09;76.32;;;32.70;;
35562;SDS011;21665;40.108;18.302;2022-10-16T06:06:36;64.82;;;31.85;;
35562;SDS011;21665;40.108;18.302;2022-10-16T06:09:02;60.47;;;30.75;;
35562;SDS011;21665;40.108;18.302;2022-10-16T06:11:30;56.15;;;29.75;;
35562;SDS011;21665;40.108;18.302;2022-10-16T06:13:59;57.75;;;29.77;;
35562;SDS011;21665;40.108;18.302;2022-10-16T06:16:28;48.33;;;29.23;;
35562;SDS011;21665;40.108;18.302;2022-10-16T06:18:56;53.88;;;32.22;;
35562;SDS011;21665;40.108;18.302;2022-10-16T06:21:25;57.85;;;33.67;;
35562;SDS011;21665;40.108;18.302;2022-10-16T06:23:53;46.92;;;32.05;;
35562;SDS011;21665;40.108;18.302;2022-10-16T06:26:22;48.75;;;34.20;;
35562;SDS011;21665;40.108;18.302;2022-10-16T06:28:54;50.78;;;35.10;;
35562;SDS011;21665;40.108;18.302;2022-10-16T06:31:22;58.97;;;37.97;;
35562;SDS011;21665;40.108;18.302;2022-10-16T06:33:53;49.60;;;36.60;;
35562;SDS011;21665;40.108;18.302;2022-10-16T06:36:22;53.92;;;39.85;;
35562;SDS011;21665;40.108;18.302;2022-10-16T06:38:50;54.95;;;40.05;;
35562;SDS011;21665;40.108;18.302;2022-10-16T06:41:18;59.55;;;42.70;;
35562;SDS011;21665;40.108;18.302;2022-10-16T06:43:47;60.72;;;41.85;;
35562;SDS011;21665;40.108;18.302;2022-10-16T06:46:15;73.07;;;45.50;;
35562;SDS011;21665;40.108;18.302;2022-10-16T06:48:44;74.10;;;47.55;;
35562;SDS011;21665;40.108;18.302;2022-10-16T06:51:12;51.70;;;39.83;;
35562;SDS011;21665;40.108;18.302;2022-10-16T06:53:44;50.15;;;38.63;;
35562;SDS011;21665;40.108;18.302;2022-10-16T06:56:18;58.90;;;43.00;;
35562;SDS011;21665;40.108;18.302;2022-10-16T06:58:47;54.60;;;41.70;;
35562;SDS011;21665;40.108;18.302;2022-10-16T07:01:15;52.13;;;41.97;;
35562;SDS011;21665;40.108;18.302;2022-10-16T07:03:53;58.83;;;44.38;;
35562;SDS011;21665;40.108;18.302;2022-10-16T07:06:21;49.22;;;39.78;;
35562;SDS011;21665;40.108;18.302;2022-10-16T07:09:40;55.92;;;42.53;;
35562;SDS011;21665;40.108;18.302;2022-10-16T07:12:06;53.47;;;42.13;;
35562;SDS011;21665;40.108;18.302;2022-10-16T07:14:33;58.50;;;42.70;;
35562;SDS011;21665;40.108;18.302;2022-10-16T07:17:00;59.58;;;43.28;;
35562;SDS011;21665;40.108;18.302;2022-10-16T07:19:26;58.67;;;41.65;;
35562;SDS011;21665;40.108;18.302;2022-10-16T07:21:54;56.70;;;41.97;;
35562;SDS011;21665;40.108;18.302;2022-10-16T07:24:21;64.60;;;42.67;;
35562;SDS011;21665;40.108;18.302;2022-10-16T07:26:48;55.22;;;41.25;;
35562;SDS011;21665;40.108;18.302;2022-10-16T07:29:16;65.38;;;43.28;;
35562;SDS011;21665;40.108;18.302;2022-10-16T07:31:46;58.97;;;44.25;;
35562;SDS011;21665;40.108;18.302;2022-10-16T07:34:20;54.00;;;42.00;;
35562;SDS011;21665;40.108;18.302;2022-10-16T07:36:58;53.53;;;40.85;;
35562;SDS011;21665;40.108;18.302;2022-10-16T07:39:25;54.03;;;41.15;;
35562;SDS011;21665;40.108;18.302;2022-10-16T07:41:54;52.03;;;40.30;;
35562;SDS011;21665;40.108;18.302;2022-10-16T07:44:21;47.65;;;39.13;;
35562;SDS011;21665;40.108;18.302;2022-10-16T07:46:50;50.67;;;39.70;;
35562;SDS011;21665;40.108;18.302;2022-10-16T07:49:17;51.15;;;38.13;;
35562;SDS011;21665;40.108;18.302;2022-10-16T07:51:43;50.20;;;37.80;;
35562;SDS011;21665;40.108;18.302;2022-10-16T07:54:10;41.67;;;34.28;;
35562;SDS011;21665;40.108;18.302;2022-10-16T07:56:36;45.67;;;34.63;;
35562;SDS011;21665;40.108;18.302;2022-10-16T08:02:42;51.45;;;34.05;;
35562;SDS011;21665;40.108;18.302;2022-10-16T08:05:20;46.85;;;33.58;;
35562;SDS011;21665;40.108;18.302;2022-10-16T08:08:01;44.47;;;33.67;;
35562;SDS011;21665;40.108;18.302;2022-10-16T08:10:55;43.10;;;30.35;;
35562;SDS011;21665;40.108;18.302;2022-10-16T08:13:28;37.03;;;29.27;;
35562;SDS011;21665;40.108;18.302;2022-10-16T08:15:59;42.30;;;30.37;;
35562;SDS011;21665;40.108;18.302;2022-10-16T08:18:30;39.47;;;28.80;;
35562;SDS011;21665;40.108;18.302;2022-10-16T08:21:06;37.08;;;28.63;;
35562;SDS011;21665;40.108;18.302;2022-10-16T08:23:41;39.60;;;28.92;;
35562;SDS011;21665;40.108;18.302;2022-10-16T08:26:21;33.97;;;25.95;;
35562;SDS011;21665;40.108;18.302;2022-10-16T08:28:51;30.67;;;24.70;;
35562;SDS011;21665;40.108;18.302;2022-10-16T08:50:39;26.42;;;22.92;;
35562;SDS011;21665;40.108;18.302;2022-10-16T08:53:06;25.33;;;22.00;;
35562;SDS011;21665;40.108;18.302;2022-10-16T08:55:38;26.95;;;22.88;;
35562;SDS011;21665;40.108;18.302;2022-10-16T08:58:18;25.15;;;22.63;;
35562;SDS011;21665;40.108;18.302;2022-10-16T09:00:53;25.90;;;23.20;;
35562;SDS011;21665;40.108;18.302;2022-10-16T09:03:25;30.52;;;24.42;;
35562;SDS011;21665;40.108;18.302;2022-10-16T09:08:40;26.73;;;23.83;;
35562;SDS011;21665;40.108;18.302;2022-10-16T09:11:38;27.35;;;23.83;;
35562;SDS011;21665;40.108;18.302;2022-10-16T09:14:29;28.27;;;23.17;;
35562;SDS011;21665;40.108;18.302;2022-10-16T09:20:14;28.13;;;22.83;;
35562;SDS011;21665;40.108;18.302;2022-10-16T09:22:44;26.05;;;21.90;;
35562;SDS011;21665;40.108;18.302;2022-10-16T09:25:12;25.23;;;22.63;;
35562;SDS011;21665;40.108;18.302;2022-10-16T09:27:48;24.02;;;21.63;;
35562;SDS011;21665;40.108;18.302;2022-10-16T09:30:19;23.50;;;21.05;;
35562;SDS011;21665;40.108;18.302;2022-10-16T09:32:48;22.67;;;20.58;;
35562;SDS011;21665;40.108;18.302;2022-10-16T09:35:22;24.17;;;21.88;;
35562;SDS011;21665;40.108;18.302;2022-10-16T09:38:25;23.58;;;21.30;;
35562;SDS011;21665;40.108;18.302;2022-10-16T09:40:55;23.33;;;21.00;;
35562;SDS011;21665;40.108;18.302;2022-10-16T09:54:18;22.23;;;20.35;;
35562;SDS011;21665;40.108;18.302;2022-10-16T09:59:18;21.70;;;19.90;;
35562;SDS011;21665;40.108;18.302;2022-10-16T10:01:50;22.75;;;20.75;;
35562;SDS011;21665;40.108;18.302;2022-10-16T10:04:19;23.20;;;21.23;;
35562;SDS011;21665;40.108;18.302;2022-10-16T10:11:52;22.50;;;20.65;;
35562;SDS011;21665;40.108;18.302;2022-10-16T10:14:22;22.20;;;20.27;;
35562;SDS011;21665;40.108;18.302;2022-10-16T10:16:50;23.00;;;20.73;;
35562;SDS011;21665;40.108;18.302;2022-10-16T10:19:28;22.10;;;20.27;;
35562;SDS011;21665;40.108;18.302;2022-10-16T10:21:54;21.38;;;19.13;;
35562;SDS011;21665;40.108;18.302;2022-10-16T10:24:23;21.02;;;19.00;;
35562;SDS011;21665;40.108;18.302;2022-10-16T10:33:00;21.95;;;19.80;;
35562;SDS011;21665;40.108;18.302;2022-10-16T10:44:16;21.50;;;19.42;;
35562;SDS011;21665;40.108;18.302;2022-10-16T10:46:57;21.85;;;19.85;;
35562;SDS011;21665;40.108;18.302;2022-10-16T10:49:57;21.95;;;19.88;;
35562;SDS011;21665;40.108;18.302;2022-10-16T10:58:13;19.98;;;18.17;;
35562;SDS011;21665;40.108;18.302;2022-10-16T11:01:23;21.42;;;19.45;;
35562;SDS011;21665;40.108;18.302;2022-10-16T11:06:40;22.45;;;20.38;;
35562;SDS011;21665;40.108;18.302;2022-10-16T11:09:23;23.10;;;20.73;;
35562;SDS011;21665;40.108;18.302;2022-10-16T11:15:03;23.20;;;20.98;;
35562;SDS011;21665;40.108;18.302;2022-10-16T11:17:39;23.30;;;21.05;;
35562;SDS011;21665;40.108;18.302;2022-10-16T11:20:47;22.77;;;20.67;;
35562;SDS011;21665;40.108;18.302;2022-10-16T11:24:13;23.05;;;20.85;;
35562;SDS011;21665;40.108;18.302;2022-10-16T11:26:58;23.10;;;20.90;;
35562;SDS011;21665;40.108;18.302;2022-10-16T11:29:31;22.80;;;20.73;;
35562;SDS011;21665;40.108;18.302;2022-10-16T11:32:11;21.20;;;19.40;;
35562;SDS011;21665;40.108;18.302;2022-10-16T11:34:52;24.35;;;22.00;;
35562;SDS011;21665;40.108;18.302;2022-10-16T11:37:38;24.50;;;22.00;;
35562;SDS011;21665;40.108;18.302;2022-10-16T11:43:08;20.67;;;18.88;;
35562;SDS011;21665;40.108;18.302;2022-10-16T11:45:46;22.23;;;20.13;;
35562;SDS011;21665;40.108;18.302;2022-10-16T11:48:38;22.50;;;20.45;;
35562;SDS011;21665;40.108;18.302;2022-10-16T11:53:59;22.30;;;19.80;;
35562;SDS011;21665;40.108;18.302;2022-10-16T11:56:28;22.92;;;20.67;;
35562;SDS011;21665;40.108;18.302;2022-10-16T11:59:25;22.10;;;19.85;;
35562;SDS011;21665;40.108;18.302;2022-10-16T12:02:03;23.25;;;21.08;;
35562;SDS011;21665;40.108;18.302;2022-10-16T12:04:58;24.83;;;22.23;;
35562;SDS011;21665;40.108;18.302;2022-10-16T12:07:38;25.45;;;22.92;;
35562;SDS011;21665;40.108;18.302;2022-10-16T12:16:04;24.38;;;21.98;;
35562;SDS011;21665;40.108;18.302;2022-10-16T12:18:38;23.80;;;21.42;;
35562;SDS011;21665;40.108;18.302;2022-10-16T12:21:07;24.52;;;22.15;;
35562;SDS011;21665;40.108;18.302;2022-10-16T12:23:36;24.65;;;22.27;;
35562;SDS011;21665;40.108;18.302;2022-10-16T12:26:05;25.23;;;22.67;;
35562;SDS011;21665;40.108;18.302;2022-10-16T12:28:32;27.55;;;22.75;;
35562;SDS011;21665;40.108;18.302;2022-10-16T12:31:03;24.98;;;22.67;;
35562;SDS011;21665;40.108;18.302;2022-10-16T12:33:56;25.33;;;22.70;;
35562;SDS011;21665;40.108;18.302;2022-10-16T12:36:33;25.63;;;22.92;;
35562;SDS011;21665;40.108;18.302;2022-10-16T12:39:01;25.85;;;23.17;;
35562;SDS011;21665;40.108;18.302;2022-10-16T12:41:30;25.70;;;22.35;;
35562;SDS011;21665;40.108;18.302;2022-10-16T12:44:20;25.50;;;22.90;;
35562;SDS011;21665;40.108;18.302;2022-10-16T12:47:18;26.40;;;23.80;;
35562;SDS011;21665;40.108;18.302;2022-10-16T12:50:25;26.98;;;24.17;;
35562;SDS011;21665;40.108;18.302;2022-10-16T12:52:52;27.27;;;24.58;;
35562;SDS011;21665;40.108;18.302;2022-10-16T12:55:20;24.85;;;22.35;;
35562;SDS011;21665;40.108;18.302;2022-10-16T12:58:06;25.38;;;22.77;;
35562;SDS011;21665;40.108;18.302;2022-10-16T13:01:01;26.05;;;23.30;;
35562;SDS011;21665;40.108;18.302;2022-10-16T13:03:43;25.40;;;22.80;;
35562;SDS011;21665;40.108;18.302;2022-10-16T13:09:32;27.45;;;22.83;;
35562;SDS011;21665;40.108;18.302;2022-10-16T13:12:08;25.90;;;23.33;;
35562;SDS011;21665;40.108;18.302;2022-10-16T13:29:12;22.27;;;20.35;;
35562;SDS011;21665;40.108;18.302;2022-10-16T13:31:43;22.20;;;19.90;;
35562;SDS011;21665;40.108;18.302;2022-10-16T13:34:15;20.52;;;18.73;;
35562;SDS011;21665;40.108;18.302;2022-10-16T13:36:49;20.73;;;18.70;;
35562;SDS011;21665;40.108;18.302;2022-10-16T13:39:27;19.73;;;18.05;;
35562;SDS011;21665;40.108;18.302;2022-10-16T13:42:18;19.17;;;17.48;;
35562;SDS011;21665;40.108;18.302;2022-10-16T13:44:52;18.35;;;16.52;;
35562;SDS011;21665;40.108;18.302;2022-10-16T13:47:24;17.27;;;15.85;;
35562;SDS011;21665;40.108;18.302;2022-10-16T13:50:00;16.63;;;15.27;;
35562;SDS011;21665;40.108;18.302;2022-10-16T13:52:30;17.65;;;16.00;;
35562;SDS011;21665;40.108;18.302;2022-10-16T13:54:59;15.98;;;14.88;;
35562;SDS011;21665;40.108;18.302;2022-10-16T13:57:26;17.02;;;15.68;;
35562;SDS011;21665;40.108;18.302;2022-10-16T13:59:52;15.80;;;14.63;;
35562;SDS011;21665;40.108;18.302;2022-10-16T14:02:22;15.88;;;14.68;;
35562;SDS011;21665;40.108;18.302;2022-10-16T14:05:01;16.23;;;14.70;;
35562;SDS011;21665;40.108;18.302;2022-10-16T14:07:31;16.13;;;14.82;;
35562;SDS011;21665;40.108;18.302;2022-10-16T14:10:02;15.77;;;14.57;;
35562;SDS011;21665;40.108;18.302;2022-10-16T14:12:34;15.55;;;14.45;;
35562;SDS011;21665;40.108;18.302;2022-10-16T14:15:01;16.73;;;15.30;;
35562;SDS011;21665;40.108;18.302;2022-10-16T14:17:29;16.75;;;14.98;;
35562;SDS011;21665;40.108;18.302;2022-10-16T14:20:03;16.35;;;15.05;;
35562;SDS011;21665;40.108;18.302;2022-10-16T14:22:35;16.17;;;15.07;;
35562;SDS011;21665;40.108;18.302;2022-10-16T14:27:45;15.98;;;14.88;;
35562;SDS011;21665;40.108;18.302;2022-10-16T14:30:28;16.48;;;15.38;;
35562;SDS011;21665;40.108;18.302;2022-10-16T14:32:57;16.35;;;15.05;;
35562;SDS011;21665;40.108;18.302;2022-10-16T14:37:56;16.20;;;15.10;;
35562;SDS011;21665;40.108;18.302;2022-10-16T14:40:25;16.55;;;15.25;;
35562;SDS011;21665;40.108;18.302;2022-10-16T14:45:34;16.88;;;15.48;;
35562;SDS011;21665;40.108;18.302;2022-10-16T14:48:12;17.60;;;16.10;;
35562;SDS011;21665;40.108;18.302;2022-10-16T14:50:43;17.30;;;15.93;;
35562;SDS011;21665;40.108;18.302;2022-10-16T14:53:13;16.60;;;15.23;;
35562;SDS011;21665;40.108;18.302;2022-10-16T14:55:41;16.75;;;15.38;;
35562;SDS011;21665;40.108;18.302;2022-10-16T14:58:13;16.42;;;15.13;;
35562;SDS011;21665;40.108;18.302;2022-10-16T15:00:46;16.45;;;15.23;;
35562;SDS011;21665;40.108;18.302;2022-10-16T15:03:24;17.75;;;16.35;;
35562;SDS011;21665;40.108;18.302;2022-10-16T15:05:51;18.50;;;16.60;;
35562;SDS011;21665;40.108;18.302;2022-10-16T15:08:18;17.83;;;16.38;;
35562;SDS011;21665;40.108;18.302;2022-10-16T15:10:46;18.83;;;17.02;;
35562;SDS011;21665;40.108;18.302;2022-10-16T15:13:13;20.38;;;18.30;;
35562;SDS011;21665;40.108;18.302;2022-10-16T15:15:42;19.00;;;17.30;;
35562;SDS011;21665;40.108;18.302;2022-10-16T15:18:15;18.13;;;16.65;;
35562;SDS011;21665;40.108;18.302;2022-10-16T15:20:48;17.27;;;15.88;;
35562;SDS011;21665;40.108;18.302;2022-10-16T15:23:18;18.30;;;16.98;;
35562;SDS011;21665;40.108;18.302;2022-10-16T15:25:49;18.63;;;17.23;;
35562;SDS011;21665;40.108;18.302;2022-10-16T15:28:17;17.85;;;16.58;;
35562;SDS011;21665;40.108;18.302;2022-10-16T15:30:45;17.40;;;16.15;;
35562;SDS011;21665;40.108;18.302;2022-10-16T15:33:16;17.75;;;16.30;;
35562;SDS011;21665;40.108;18.302;2022-10-16T15:35:47;17.60;;;16.30;;
35562;SDS011;21665;40.108;18.302;2022-10-16T15:38:15;17.63;;;16.25;;
35562;SDS011;21665;40.108;18.302;2022-10-16T15:40:43;17.85;;;16.55;;
35562;SDS011;21665;40.108;18.302;2022-10-16T15:43:11;17.77;;;16.30;;
35562;SDS011;21665;40.108;18.302;2022-10-16T15:45:38;16.75;;;15.35;;
35562;SDS011;21665;40.108;18.302;2022-10-16T15:48:06;16.55;;;15.25;;
35562;SDS011;21665;40.108;18.302;2022-10-16T15:50:36;25.27;;;15.52;;
35562;SDS011;21665;40.108;18.302;2022-10-16T15:53:03;15.82;;;14.50;;
35562;SDS011;21665;40.108;18.302;2022-10-16T15:55:31;16.45;;;14.73;;
35562;SDS011;21665;40.108;18.302;2022-10-16T15:57:59;15.32;;;13.93;;
35562;SDS011;21665;40.108;18.302;2022-10-16T16:00:26;15.32;;;13.70;;
35562;SDS011;21665;40.108;18.302;2022-10-16T16:02:55;19.85;;;14.50;;
35562;SDS011;21665;40.108;18.302;2022-10-16T16:05:22;15.43;;;14.00;;
35562;SDS011;21665;40.108;18.302;2022-10-16T16:07:49;14.45;;;13.10;;
35562;SDS011;21665;40.108;18.302;2022-10-16T16:10:16;15.10;;;12.70;;
35562;SDS011;21665;40.108;18.302;2022-10-16T16:12:46;14.10;;;12.88;;
35562;SDS011;21665;40.108;18.302;2022-10-16T16:15:18;14.35;;;12.82;;
35562;SDS011;21665;40.108;18.302;2022-10-16T16:17:47;14.88;;;12.98;;
35562;SDS011;21665;40.108;18.302;2022-10-16T16:20:15;14.77;;;13.10;;
35562;SDS011;21665;40.108;18.302;2022-10-16T16:22:42;14.25;;;12.95;;
35562;SDS011;21665;40.108;18.302;2022-10-16T16:25:09;13.75;;;12.35;;
35562;SDS011;21665;40.108;18.302;2022-10-16T16:27:36;13.23;;;11.98;;
35562;SDS011;21665;40.108;18.302;2022-10-16T16:30:05;15.65;;;12.77;;
35562;SDS011;21665;40.108;18.302;2022-10-16T16:32:33;17.38;;;12.70;;
35562;SDS011;21665;40.108;18.302;2022-10-16T16:35:01;14.55;;;11.95;;
35562;SDS011;21665;40.108;18.302;2022-10-16T16:37:29;15.23;;;12.07;;
35562;SDS011;21665;40.108;18.302;2022-10-16T16:39:56;14.27;;;12.80;;
35562;SDS011;21665;40.108;18.302;2022-10-16T16:42:25;13.18;;;11.13;;
35562;SDS011;21665;40.108;18.302;2022-10-16T16:44:53;13.18;;;11.68;;
35562;SDS011;21665;40.108;18.302;2022-10-16T16:47:20;13.07;;;11.77;;